Time;durP1;ratioP1;P1;durP2;ratioP2;P2;SDS_P1;SDS_P2;PMS_P1;PMS_P2;Temp;Humidity;BMP_temperature;BMP_pressure;BME280_temperature;BME280_humidity;BME280_pressure;Samples;Min_cycle;Max_cycle;Signal;HPM_P1;HPM_P2
2022/04/06 00:01:47;;;;;;;15.63;9.02;;;16.50;55.00;15.80;99881.00;;;;5056370;28;20095;-65
2022/04/06 00:04:33;;;;;;;14.55;9.20;;;16.50;55.00;15.80;99880.00;;;;5050450;28;20051;-65
2022/04/06 00:07:19;;;;;;;17.05;11.27;;;16.50;55.00;15.80;99877.00;;;;5060750;28;20538;-64
2022/04/06 00:10:07;;;;;;;14.77;9.07;;;16.50;55.00;15.80;99870.00;;;;5062339;28;20045;-65
2022/04/06 00:12:54;;;;;;;17.63;10.73;;;16.50;54.90;15.80;99872.00;;;;5065808;28;20580;-65
2022/04/06 00:15:40;;;;;;;17.35;9.98;;;16.50;55.00;15.80;99861.00;;;;5055736;28;20036;-65
2022/04/06 00:18:26;;;;;;;19.60;11.45;;;16.60;55.00;15.80;99859.00;;;;5069041;28;20446;-65
2022/04/06 00:21:12;;;;;;;15.35;10.40;;;16.60;55.00;15.80;99863.00;;;;5057965;28;20059;-65
2022/04/06 00:23:58;;;;;;;20.77;10.85;;;16.50;54.90;15.70;99859.00;;;;5056821;28;20494;-65
2022/04/06 00:26:44;;;;;;;20.33;11.75;;;16.60;55.00;15.80;99854.00;;;;5051338;28;20044;-65
2022/04/06 00:29:30;;;;;;;16.70;11.02;;;16.60;54.90;15.70;99852.00;;;;5049731;28;20040;-65
2022/04/06 00:32:16;;;;;;;16.90;11.15;;;16.60;55.00;15.80;99851.00;;;;5064569;28;20045;-65
2022/04/06 00:38:08;;;;;;;15.63;11.57;;;16.50;54.90;15.70;99840.00;;;;5059181;28;20107;-65
2022/04/06 00:40:54;;;;;;;18.27;11.57;;;16.50;54.90;15.80;99840.00;;;;5062390;28;20147;-65
2022/04/06 00:43:40;;;;;;;19.98;11.50;;;16.50;54.90;15.70;99844.00;;;;5055037;28;20371;-65
2022/04/06 00:46:26;;;;;;;17.63;12.07;;;16.50;54.90;15.70;99848.00;;;;5063986;28;20308;-65
2022/04/06 00:49:14;;;;;;;19.20;10.77;;;16.50;54.90;15.70;99836.00;;;;5051102;28;20494;-65
2022/04/06 00:52:01;;;;;;;20.23;12.65;;;16.50;54.80;15.70;99829.00;;;;5061791;28;20482;-65
2022/04/06 00:54:48;;;;;;;18.70;11.38;;;16.60;55.00;15.70;99828.00;;;;5058011;28;20059;-65
2022/04/06 00:57:34;;;;;;;18.95;11.02;;;16.50;54.90;15.70;99822.00;;;;5031830;28;20052;-65
2022/04/06 01:00:20;;;;;;;15.55;10.75;;;16.50;54.80;15.70;99826.00;;;;5053287;28;20041;-64
2022/04/06 01:03:06;;;;;;;20.33;10.82;;;16.50;54.80;15.70;99811.00;;;;5049850;28;20054;-65
2022/04/06 01:05:52;;;;;;;16.75;11.02;;;16.50;54.80;15.70;99811.00;;;;5062013;28;20494;-65
2022/04/06 01:08:38;;;;;;;15.38;9.43;;;16.50;54.80;15.70;99813.00;;;;5041525;28;20040;-65
2022/04/06 01:11:24;;;;;;;16.85;9.70;;;16.60;54.80;15.70;99797.00;;;;5043054;28;20048;-65
2022/04/06 01:14:11;;;;;;;16.85;10.23;;;16.60;54.90;15.70;99800.00;;;;5059578;28;20497;-65
2022/04/06 01:17:01;;;;;;;13.80;9.23;;;16.50;54.80;15.70;99800.00;;;;5053035;28;20445;-65
2022/04/06 01:19:47;;;;;;;16.05;9.48;;;16.50;54.80;15.70;99804.00;;;;5048874;28;20044;-65
2022/04/06 01:22:34;;;;;;;16.75;9.43;;;16.50;54.80;15.70;99803.00;;;;5056645;28;20048;-65
2022/04/06 01:25:20;;;;;;;15.68;8.63;;;16.50;54.80;15.70;99805.00;;;;5041372;28;20033;-65
2022/04/06 01:28:07;;;;;;;14.07;8.88;;;16.50;54.80;15.70;99801.00;;;;5056515;28;20072;-65
2022/04/06 01:30:54;;;;;;;17.25;9.57;;;16.50;54.80;15.70;99795.00;;;;5040818;28;20045;-65
2022/04/06 01:33:40;;;;;;;16.48;8.73;;;16.50;54.70;15.70;99796.00;;;;5040088;28;20049;-65
2022/04/06 01:36:26;;;;;;;15.32;9.13;;;16.50;54.70;15.70;99800.00;;;;5057405;28;20053;-65
2022/04/06 01:39:12;;;;;;;16.52;7.43;;;16.50;54.70;15.70;99794.00;;;;5055845;28;20502;-65
2022/04/06 01:41:58;;;;;;;16.60;8.35;;;16.50;54.60;15.60;99786.00;;;;5062634;28;20040;-65
2022/04/06 01:44:45;;;;;;;15.35;7.90;;;16.50;54.60;15.70;99789.00;;;;5053779;28;20040;-65
2022/04/06 01:47:31;;;;;;;13.63;7.93;;;16.50;54.60;15.70;99793.00;;;;5059735;28;20045;-65
2022/04/06 01:53:22;;;;;;;15.50;8.02;;;16.50;54.70;15.70;99788.00;;;;5050493;28;20120;-65
2022/04/06 01:56:09;;;;;;;12.95;7.28;;;16.50;54.60;15.70;99791.00;;;;5045499;28;20036;-65
2022/04/06 01:58:55;;;;;;;11.73;7.45;;;16.50;54.60;15.70;99783.00;;;;5061790;28;20036;-65
2022/04/06 02:01:41;;;;;;;14.00;7.43;;;16.50;54.60;15.70;99784.00;;;;5058732;28;20084;-65
2022/04/06 02:04:27;;;;;;;13.35;7.03;;;16.50;54.60;15.70;99788.00;;;;5033026;28;20509;-65
2022/04/06 02:07:16;;;;;;;12.55;6.43;;;16.50;54.60;15.70;99789.00;;;;5053125;28;20080;-65
2022/04/06 02:10:02;;;;;;;13.48;6.55;;;16.50;54.50;15.70;99789.00;;;;5054303;28;20044;-65
2022/04/06 02:12:48;;;;;;;10.90;6.70;;;16.50;54.50;15.70;99774.00;;;;5061460;28;20119;-65
2022/04/06 02:15:37;;;;;;;11.70;6.53;;;16.50;54.50;15.70;99784.00;;;;5044177;28;20563;-65
2022/04/06 02:18:23;;;;;;;13.07;6.65;;;16.50;54.50;15.70;99779.00;;;;5065384;28;20036;-65
2022/04/06 02:21:09;;;;;;;13.15;5.85;;;16.50;54.40;15.70;99779.00;;;;5055269;28;20037;-65
2022/04/06 02:23:55;;;;;;;12.18;6.03;;;16.50;54.40;15.70;99767.00;;;;5053519;28;20407;-65
2022/04/06 02:26:41;;;;;;;15.93;6.05;;;16.50;54.30;15.70;99779.00;;;;5060189;28;20132;-65
2022/04/06 02:29:27;;;;;;;10.02;5.97;;;16.50;54.30;15.70;99773.00;;;;5036028;28;20051;-65
2022/04/06 02:32:14;;;;;;;10.68;5.38;;;16.50;54.30;15.70;99777.00;;;;5055865;28;20046;-65
2022/04/06 02:35:00;;;;;;;10.18;5.53;;;16.50;54.30;15.70;99775.00;;;;5043318;28;20036;-65
2022/04/06 02:37:46;;;;;;;10.75;5.70;;;16.50;54.30;15.70;99763.00;;;;5056407;28;20106;-65
2022/04/06 02:40:33;;;;;;;9.35;5.18;;;16.50;54.20;15.70;99769.00;;;;5042747;28;20048;-65
2022/04/06 02:43:19;;;;;;;13.27;5.65;;;16.50;54.20;15.70;99762.00;;;;5056501;28;20032;-65
2022/04/06 02:46:05;;;;;;;11.10;4.93;;;16.50;54.20;15.70;99762.00;;;;5050538;28;20039;-65
2022/04/06 02:48:51;;;;;;;14.73;5.28;;;16.50;54.20;15.70;99770.00;;;;5043234;28;20051;-65
2022/04/06 02:51:37;;;;;;;9.68;5.10;;;16.50;54.20;15.70;99756.00;;;;5053874;28;20083;-65
2022/04/06 02:54:24;;;;;;;14.10;5.22;;;16.50;54.20;15.70;99759.00;;;;5053747;28;20037;-65
2022/04/06 02:57:10;;;;;;;10.18;5.05;;;16.50;54.20;15.70;99762.00;;;;5055516;28;20381;-64
2022/04/06 02:59:56;;;;;;;10.65;5.15;;;16.50;54.20;15.70;99759.00;;;;5063235;28;20048;-64
2022/04/06 03:02:46;;;;;;;12.50;4.97;;;16.50;54.20;15.70;99756.00;;;;5062389;28;20405;-65
2022/04/06 03:05:32;;;;;;;11.82;4.75;;;16.50;54.20;15.70;99764.00;;;;5046313;28;20087;-65
2022/04/06 03:08:18;;;;;;;12.85;5.53;;;16.50;54.10;15.70;99755.00;;;;5066558;28;20090;-64
2022/04/06 03:11:04;;;;;;;11.02;4.78;;;16.50;54.20;15.70;99762.00;;;;5030613;28;20049;-65
2022/04/06 03:13:51;;;;;;;10.43;4.75;;;16.50;54.20;15.70;99757.00;;;;5062163;28;20253;-65
2022/04/06 03:16:37;;;;;;;11.45;4.75;;;16.50;54.20;15.70;99748.00;;;;5061881;28;20070;-65
2022/04/06 03:19:24;;;;;;;10.93;5.15;;;16.50;54.20;15.70;99752.00;;;;5060521;28;20418;-65
2022/04/06 03:22:16;;;;;;;11.68;5.18;;;16.50;54.20;15.70;99749.00;;;;5058720;28;20375;-65
2022/04/06 03:25:03;;;;;;;10.30;5.28;;;16.50;54.20;15.70;99745.00;;;;5045727;28;20040;-64
2022/04/06 03:27:49;;;;;;;12.85;5.25;;;16.50;54.20;15.70;99739.00;;;;5061728;28;20051;-65
2022/04/06 03:30:35;;;;;;;13.27;5.60;;;16.50;54.20;15.70;99745.00;;;;5054188;28;20041;-65
2022/04/06 03:33:21;;;;;;;12.10;5.47;;;16.50;54.20;15.70;99747.00;;;;5059700;28;20048;-65
2022/04/06 03:36:08;;;;;;;12.57;5.88;;;16.50;54.20;15.70;99736.00;;;;5058078;28;20072;-65
2022/04/06 03:38:55;;;;;;;10.13;5.28;;;16.50;54.20;15.70;99734.00;;;;5058667;28;20046;-65
2022/04/06 03:41:41;;;;;;;14.20;5.85;;;16.50;54.20;15.70;99728.00;;;;5063530;28;20045;-64
2022/04/06 03:44:27;;;;;;;10.95;5.40;;;16.40;54.20;15.70;99734.00;;;;5064276;28;20409;-65
2022/04/06 03:47:13;;;;;;;11.85;6.18;;;16.50;54.20;15.70;99729.00;;;;5058197;28;20090;-64
2022/04/06 03:50:02;;;;;;;12.40;5.13;;;16.50;54.30;15.70;99719.00;;;;5049281;28;20532;-65
2022/04/06 03:52:48;;;;;;;9.75;5.63;;;16.40;54.30;15.70;99720.00;;;;5043200;28;20041;-65
2022/04/06 03:55:34;;;;;;;10.10;5.75;;;16.50;54.30;15.70;99723.00;;;;5061695;28;20044;-65
2022/04/06 03:58:21;;;;;;;13.10;6.25;;;16.40;54.30;15.70;99721.00;;;;5062809;28;20445;-65
2022/04/06 04:01:07;;;;;;;13.60;6.15;;;16.50;54.30;15.70;99725.00;;;;5046853;28;20048;-64
2022/04/06 04:03:53;;;;;;;11.45;5.88;;;16.50;54.20;15.70;99714.00;;;;5061300;28;20040;-65
2022/04/06 04:06:39;;;;;;;11.00;6.70;;;16.50;54.20;15.70;99721.00;;;;5040726;28;20040;-65
2022/04/06 04:09:25;;;;;;;12.25;5.60;;;16.50;54.20;15.70;99717.00;;;;5067447;28;20510;-65
2022/04/06 04:12:11;;;;;;;10.13;5.90;;;16.50;54.10;15.70;99717.00;;;;5045154;28;20052;-65
2022/04/06 04:14:58;;;;;;;12.15;5.65;;;16.50;54.10;15.70;99725.00;;;;5055811;28;20103;-65
2022/04/06 04:17:44;;;;;;;14.02;5.68;;;16.50;54.10;15.70;99713.00;;;;5060849;28;20512;-65
2022/04/06 04:20:30;;;;;;;11.45;5.68;;;16.50;54.10;15.70;99721.00;;;;5056672;28;20040;-65
2022/04/06 04:23:16;;;;;;;11.25;5.85;;;16.50;54.00;15.70;99720.00;;;;5060490;28;20053;-65
2022/04/06 04:26:02;;;;;;;13.55;5.40;;;16.40;54.00;15.70;99714.00;;;;5062985;28;20048;-64
2022/04/06 04:28:48;;;;;;;11.43;5.32;;;16.40;53.90;15.60;99713.00;;;;5060318;28;20062;-65
2022/04/06 04:31:34;;;;;;;11.52;5.70;;;16.40;53.90;15.60;99720.00;;;;5061199;28;20036;-65
2022/04/06 04:34:20;;;;;;;10.65;5.82;;;16.50;53.90;15.60;99713.00;;;;5061347;28;20049;-65
2022/04/06 04:37:06;;;;;;;8.45;5.07;;;16.40;53.90;15.60;99708.00;;;;5061537;28;20044;-65
2022/04/06 04:39:52;;;;;;;7.70;5.00;;;16.40;53.80;15.60;99710.00;;;;5056732;28;20433;-65
2022/04/06 04:42:38;;;;;;;9.45;5.10;;;16.40;53.80;15.60;99718.00;;;;5060827;28;20058;-65
2022/04/06 04:45:24;;;;;;;12.60;4.95;;;16.40;53.80;15.60;99700.00;;;;5055718;28;20124;-65
2022/04/06 04:48:10;;;;;;;10.57;5.32;;;16.40;53.80;15.60;99708.00;;;;5059214;28;20048;-65
2022/04/06 04:50:57;;;;;;;10.30;5.35;;;16.40;53.70;15.60;99712.00;;;;5062161;28;20572;-65
2022/04/06 04:53:43;;;;;;;9.68;4.85;;;16.50;53.70;15.60;99710.00;;;;5057705;28;20036;-65
2022/04/06 04:56:30;;;;;;;10.63;5.30;;;16.40;53.70;15.60;99706.00;;;;5057110;28;20044;-65
2022/04/06 04:59:16;;;;;;;9.45;5.22;;;16.40;53.60;15.60;99709.00;;;;5057939;28;20099;-64
2022/04/06 05:02:03;;;;;;;10.27;4.38;;;16.40;53.60;15.60;99714.00;;;;5052436;28;20040;-65
2022/04/06 05:04:49;;;;;;;8.90;4.97;;;16.40;53.50;15.60;99704.00;;;;5060074;28;20041;-65
2022/04/06 05:07:37;;;;;;;12.20;5.18;;;16.40;53.50;15.60;99704.00;;;;5057476;28;20463;-65
2022/04/06 05:10:23;;;;;;;8.13;4.28;;;16.40;53.50;15.60;99698.00;;;;5059496;28;20215;-65
2022/04/06 05:13:09;;;;;;;9.73;4.93;;;16.40;53.40;15.60;99709.00;;;;5063100;28;20041;-65
2022/04/06 05:15:55;;;;;;;8.32;4.35;;;16.40;53.40;15.60;99699.00;;;;5059707;28;20048;-65
2022/04/06 05:18:41;;;;;;;10.68;4.38;;;16.40;53.30;15.60;99704.00;;;;5058595;28;20107;-65
2022/04/06 05:21:28;;;;;;;10.20;4.28;;;16.40;53.30;15.60;99693.00;;;;5047455;28;20051;-65
2022/04/06 05:24:14;;;;;;;10.23;4.15;;;16.40;53.30;15.60;99702.00;;;;5061809;28;20090;-65
2022/04/06 05:27:00;;;;;;;8.32;4.30;;;16.40;53.20;15.60;99710.00;;;;5056181;28;20304;-65
2022/04/06 05:29:46;;;;;;;8.45;4.32;;;16.40;53.20;15.60;99704.00;;;;5054636;28;20092;-65
2022/04/06 05:32:32;;;;;;;9.88;4.70;;;16.40;53.20;15.60;99699.00;;;;5058234;28;20478;-65
2022/04/06 05:35:18;;;;;;;8.05;3.60;;;16.40;53.20;15.60;99703.00;;;;5062226;28;20106;-65
2022/04/06 05:38:04;;;;;;;5.95;3.67;;;16.40;53.10;15.60;99708.00;;;;5056251;28;20094;-65
2022/04/06 05:40:51;;;;;;;11.02;4.00;;;16.40;53.10;15.60;99704.00;;;;5053437;28;20165;-65
2022/04/06 05:43:37;;;;;;;5.60;3.30;;;16.40;53.00;15.60;99703.00;;;;5057675;28;20061;-65
2022/04/06 05:46:23;;;;;;;8.23;3.38;;;16.40;53.00;15.60;99696.00;;;;5051746;28;20041;-64
2022/04/06 05:49:09;;;;;;;8.40;3.15;;;16.40;53.00;15.60;99700.00;;;;5056701;28;20639;-65
2022/04/06 05:51:55;;;;;;;9.85;3.67;;;16.40;52.90;15.60;99697.00;;;;5060195;28;20049;-65
2022/04/06 05:54:41;;;;;;;9.10;2.92;;;16.40;52.90;15.60;99697.00;;;;5057324;28;20510;-65
2022/04/06 05:57:28;;;;;;;9.93;3.38;;;16.40;52.90;15.60;99698.00;;;;5054635;28;20052;-65
2022/04/06 06:00:14;;;;;;;9.70;3.40;;;16.30;53.50;15.60;99696.00;;;;5054699;28;20041;-65
2022/04/06 06:03:00;;;;;;;7.40;2.85;;;16.30;52.80;15.60;99696.00;;;;5057502;28;20124;-65
2022/04/06 06:05:46;;;;;;;7.10;3.65;;;16.30;52.70;15.60;99693.00;;;;5043366;28;20410;-65
2022/04/06 06:08:32;;;;;;;5.53;2.50;;;16.30;52.70;15.60;99697.00;;;;5063324;28;20037;-65
2022/04/06 06:11:19;;;;;;;9.55;2.65;;;16.30;52.70;15.60;99692.00;;;;5054040;28;20415;-65
2022/04/06 06:14:08;;;;;;;5.78;2.33;;;16.40;52.70;15.60;99685.00;;;;5053954;28;20040;-65
2022/04/06 06:16:54;;;;;;;8.45;2.47;;;16.30;52.70;15.60;99680.00;;;;5042762;28;20040;-65
2022/04/06 06:19:41;;;;;;;7.75;2.60;;;16.30;52.50;15.60;99689.00;;;;5047959;28;20085;-65
2022/04/06 06:22:27;;;;;;;8.77;2.63;;;16.40;52.60;15.60;99686.00;;;;5053762;28;20406;-65
2022/04/06 06:25:13;;;;;;;7.38;2.40;;;16.40;52.50;15.60;99694.00;;;;5076107;28;20106;-64
2022/04/06 06:28:01;;;;;;;5.15;2.22;;;16.30;52.50;15.60;99685.00;;;;5062543;28;20042;-65
2022/04/06 06:30:47;;;;;;;6.53;2.08;;;16.30;52.40;15.60;99693.00;;;;5062875;28;20044;-65
2022/04/06 06:33:33;;;;;;;6.65;2.08;;;16.30;52.30;15.60;99698.00;;;;5056711;28;20044;-64
2022/04/06 06:36:19;;;;;;;4.82;1.92;;;16.30;52.30;15.60;99697.00;;;;5080361;28;20040;-65
2022/04/06 06:39:06;;;;;;;4.05;2.10;;;16.30;52.20;15.60;99692.00;;;;5065063;28;20094;-65
2022/04/06 06:41:52;;;;;;;9.95;2.47;;;16.40;52.50;15.60;99690.00;;;;5057596;28;20040;-65
2022/04/06 06:44:38;;;;;;;6.30;2.10;;;16.30;52.30;15.60;99671.00;;;;5062855;28;20102;-65
2022/04/06 06:47:24;;;;;;;6.15;2.13;;;16.30;52.20;15.60;99679.00;;;;5056979;28;20355;-65
2022/04/06 06:50:12;;;;;;;7.47;2.08;;;16.30;52.10;15.60;99675.00;;;;5057123;28;20594;-65
2022/04/06 06:52:58;;;;;;;7.53;2.67;;;16.40;52.20;15.60;99676.00;;;;5048565;28;20406;-65
2022/04/06 06:55:45;;;;;;;5.05;2.25;;;16.40;52.20;15.60;99684.00;;;;5045492;28;20036;-65
2022/04/06 06:58:31;;;;;;;7.63;2.30;;;16.40;52.10;15.60;99679.00;;;;5066582;28;20036;-65
2022/04/06 07:01:17;;;;;;;7.55;2.08;;;16.40;52.10;15.60;99688.00;;;;5059049;28;20406;-65
2022/04/06 07:04:03;;;;;;;3.35;1.98;;;16.40;52.10;15.60;99685.00;;;;5054933;28;20374;-65
2022/04/06 07:06:49;;;;;;;5.35;1.83;;;16.30;52.00;15.60;99684.00;;;;5062182;28;20047;-64
2022/04/06 07:09:35;;;;;;;5.72;2.03;;;16.40;52.00;15.60;99680.00;;;;5059132;28;20453;-65
2022/04/06 07:12:21;;;;;;;5.45;1.80;;;16.40;51.90;15.60;99676.00;;;;5062640;28;20036;-65
2022/04/06 07:15:08;;;;;;;6.72;2.00;;;16.40;52.00;15.60;99680.00;;;;5039918;28;20548;-65
2022/04/06 07:17:58;;;;;;;6.65;1.75;;;16.40;51.80;15.60;99667.00;;;;5057351;28;20239;-65
2022/04/06 07:20:44;;;;;;;4.50;1.70;;;16.40;51.80;15.60;99662.00;;;;5044756;28;20048;-65
2022/04/06 07:23:30;;;;;;;6.28;1.85;;;16.40;51.80;15.60;99667.00;;;;5044569;28;20333;-65
2022/04/06 07:26:17;;;;;;;7.72;1.70;;;16.40;51.80;15.60;99657.00;;;;5058439;28;20049;-64
2022/04/06 07:29:03;;;;;;;6.90;1.92;;;16.40;51.90;15.60;99665.00;;;;5048399;28;20482;-65
2022/04/06 07:31:49;;;;;;;5.18;1.63;;;16.40;51.70;15.60;99652.00;;;;5060626;28;20044;-65
2022/04/06 07:34:35;;;;;;;3.97;1.80;;;16.40;51.70;15.60;99652.00;;;;5061852;28;20093;-65
2022/04/06 07:37:21;;;;;;;8.13;2.13;;;16.40;51.70;15.60;99650.00;;;;5058053;28;20371;-65
2022/04/06 07:40:09;;;;;;;4.95;1.85;;;16.40;51.60;15.60;99647.00;;;;5063924;28;20075;-65
2022/04/06 07:42:55;;;;;;;5.90;2.00;;;16.40;51.70;15.60;99643.00;;;;5063505;28;20128;-65
2022/04/06 07:45:41;;;;;;;4.13;1.92;;;16.40;51.70;15.60;99636.00;;;;5053894;28;20048;-65
2022/04/06 07:48:27;;;;;;;4.07;1.55;;;16.40;51.60;15.60;99637.00;;;;5064076;28;20063;-64
2022/04/06 07:51:13;;;;;;;4.57;1.75;;;16.40;51.70;15.60;99637.00;;;;5058268;28;20185;-65
2022/04/06 07:53:59;;;;;;;8.50;2.47;;;16.40;51.60;15.60;99637.00;;;;5057805;28;20033;-65
2022/04/06 07:56:47;;;;;;;6.57;2.05;;;16.40;51.60;15.60;99637.00;;;;5059730;28;20052;-65
2022/04/06 07:59:33;;;;;;;6.17;2.07;;;16.40;51.60;15.60;99634.00;;;;5049588;28;20036;-65
2022/04/06 08:02:22;;;;;;;7.45;2.25;;;16.30;51.60;15.60;99630.00;;;;5065670;28;20051;-65
2022/04/06 08:05:08;;;;;;;8.13;2.42;;;16.40;51.60;15.60;99623.00;;;;5047000;28;20045;-64
2022/04/06 08:07:54;;;;;;;5.75;2.25;;;16.40;51.60;15.60;99632.00;;;;5062465;28;20086;-65
2022/04/06 08:10:40;;;;;;;5.35;2.00;;;16.40;51.50;15.60;99631.00;;;;5057095;28;20131;-65
2022/04/06 08:13:26;;;;;;;7.88;2.20;;;16.40;51.50;15.60;99628.00;;;;5064134;28;20044;-65
2022/04/06 08:16:13;;;;;;;5.55;2.03;;;16.40;51.50;15.60;99631.00;;;;5062629;28;20501;-65
2022/04/06 08:18:59;;;;;;;6.43;2.15;;;16.40;51.50;15.60;99626.00;;;;5056780;28;20041;-65
2022/04/06 08:21:45;;;;;;;6.85;2.50;;;16.40;51.50;15.60;99624.00;;;;5057822;28;20395;-65
2022/04/06 08:25:02;;;;;;;3.67;2.22;;;16.40;51.40;15.60;99629.00;;;;5057681;28;20052;-65
2022/04/06 08:27:48;;;;;;;5.95;2.10;;;16.40;51.60;15.60;99630.00;;;;5063097;28;20315;-65
2022/04/06 08:30:44;;;;;;;5.13;1.90;;;16.40;51.50;15.60;99627.00;;;;5043989;28;20048;-65
2022/04/06 08:33:30;;;;;;;7.63;2.15;;;16.40;51.40;15.60;99624.00;;;;5058664;28;20533;-65
2022/04/06 08:36:19;;;;;;;4.55;2.08;;;16.40;51.40;15.50;99632.00;;;;5062467;28;20045;-65
2022/04/06 08:39:06;;;;;;;7.72;2.17;;;16.40;51.40;15.60;99624.00;;;;5058831;28;20272;-65
2022/04/06 08:41:54;;;;;;;6.18;1.60;;;16.30;51.30;15.50;99623.00;;;;5057747;28;20044;-65
2022/04/06 08:44:43;;;;;;;5.72;2.03;;;16.40;51.30;15.50;99620.00;;;;5045701;28;20054;-65
2022/04/06 08:47:31;;;;;;;6.00;1.92;;;16.40;51.40;15.50;99618.00;;;;5046439;28;20170;-65
2022/04/06 08:50:18;;;;;;;;;;;16.40;51.40;15.50;99616.00;;;;5062800;28;20083;-65
2022/04/06 08:53:05;;;;;;;4.60;1.35;;;16.40;51.50;15.50;99616.00;;;;5069727;28;19922;-65
2022/04/06 08:55:51;;;;;;;4.30;1.50;;;16.40;51.40;15.50;99618.00;;;;5053136;28;20040;-65
2022/04/06 08:58:37;;;;;;;6.28;1.80;;;16.40;51.20;15.50;99611.00;;;;5046135;28;20123;-65
2022/04/06 09:01:23;;;;;;;4.78;1.75;;;16.40;51.20;15.50;99613.00;;;;5059788;28;20037;-65
2022/04/06 09:04:09;;;;;;;2.25;1.27;;;16.30;51.10;15.50;99613.00;;;;5056588;28;20041;-65
2022/04/06 09:06:55;;;;;;;5.07;1.42;;;16.40;51.20;15.50;99613.00;;;;5050308;28;20051;-65
2022/04/06 09:09:41;;;;;;;5.78;1.42;;;16.30;51.00;15.50;99616.00;;;;5036654;28;20040;-65
2022/04/06 09:12:28;;;;;;;3.45;1.35;;;16.30;50.90;15.50;99617.00;;;;5060517;28;20048;-65
2022/04/06 09:15:14;;;;;;;6.18;1.58;;;16.30;50.90;15.50;99612.00;;;;5059056;28;20095;-64
2022/04/06 09:18:01;;;;;;;3.10;1.33;;;16.40;50.90;15.60;99596.00;;;;5061755;28;20044;-65
2022/04/06 09:20:47;;;;;;;4.22;1.63;;;16.40;50.80;15.50;99607.00;;;;5046232;28;20461;-65
2022/04/06 09:23:33;;;;;;;2.40;1.10;;;16.40;50.70;15.50;99603.00;;;;5058851;28;20075;-65
2022/04/06 09:26:20;;;;;;;3.13;1.33;;;16.50;51.50;15.50;99604.00;;;;5056903;28;20053;-65
2022/04/06 09:29:06;;;;;;;3.63;1.25;;;16.40;50.70;15.50;99602.00;;;;5059885;28;20048;-65
2022/04/06 09:31:52;;;;;;;3.90;1.08;;;16.40;50.50;15.50;99609.00;;;;5059123;28;20139;-65
2022/04/06 09:34:38;;;;;;;2.67;0.95;;;16.40;50.50;15.50;99604.00;;;;5040972;28;20098;-65
2022/04/06 09:37:29;;;;;;;4.13;1.17;;;16.40;50.40;15.50;99607.00;;;;5062591;28;20079;-65
2022/04/06 09:40:16;;;;;;;4.68;1.27;;;16.30;50.30;15.50;99604.00;;;;5057427;28;20045;-65
2022/04/06 09:43:02;;;;;;;4.35;1.10;;;16.40;51.10;15.50;99595.00;;;;5044388;28;20045;-65
2022/04/06 09:48:56;;;;;;;4.55;1.00;;;16.40;50.40;15.50;99600.00;;;;5046663;28;20123;-65
2022/04/06 09:51:44;;;;;;;4.00;1.17;;;16.40;50.30;15.50;99601.00;;;;5032850;28;20051;-64
2022/04/06 09:54:30;;;;;;;3.88;0.88;;;16.40;50.30;15.50;99593.00;;;;5044405;28;20036;-65
2022/04/06 09:57:16;;;;;;;3.10;1.90;;;16.40;50.30;15.50;99593.00;;;;5056339;28;20037;-65
2022/04/06 10:00:02;;;;;;;3.75;1.20;;;16.40;50.40;15.50;99594.00;;;;5045924;28;20083;-65
2022/04/06 10:03:05;;;;;;;5.20;1.17;;;16.40;50.40;15.50;99592.00;;;;5058252;28;20033;-64
2022/04/06 10:05:51;;;;;;;1.92;0.90;;;16.40;50.30;15.50;99590.00;;;;5042478;28;20200;-65
2022/04/06 10:08:40;;;;;;;3.42;1.25;;;16.40;50.40;15.60;99588.00;;;;5040425;28;20076;-64
2022/04/06 10:11:30;;;;;;;5.13;1.30;;;16.40;50.40;15.60;99596.00;;;;5055746;28;20082;-64
2022/04/06 10:14:16;;;;;;;4.18;1.42;;;16.40;50.50;15.60;99602.00;;;;5054407;28;20128;-64
2022/04/06 10:17:02;;;;;;;6.25;1.90;;;16.40;50.50;15.60;99590.00;;;;5039807;28;20041;-65
2022/04/06 10:19:53;;;;;;;3.40;1.30;;;16.40;50.60;15.60;99594.00;;;;5051528;28;20178;-64
2022/04/06 10:23:07;;;;;;;2.50;1.40;;;16.30;50.50;15.60;99588.00;;;;5046104;28;20094;-65
2022/04/06 10:26:23;;;;;;;6.70;1.73;;;16.40;50.60;15.60;99595.00;;;;5050089;28;20045;-65
2022/04/06 10:29:09;;;;;;;6.40;2.05;;;16.40;50.70;15.60;99584.00;;;;5050598;28;20134;-65
2022/04/06 10:31:55;;;;;;;5.85;2.05;;;16.40;50.70;15.60;99586.00;;;;5043469;28;20644;-65
2022/04/06 10:34:42;;;;;;;3.35;1.65;;;16.40;50.80;15.60;99583.00;;;;5044645;28;20120;-65
2022/04/06 10:37:28;;;;;;;2.63;1.70;;;16.30;50.80;15.60;99580.00;;;;5048830;28;20036;-65
2022/04/06 10:40:14;;;;;;;4.57;2.00;;;16.50;50.90;15.60;99580.00;;;;5041683;28;20068;-65
2022/04/06 10:43:00;;;;;;;5.68;1.88;;;16.40;51.00;15.60;99581.00;;;;5062006;28;20044;-65
2022/04/06 10:45:49;;;;;;;3.70;1.75;;;16.40;51.10;15.60;99574.00;;;;5051191;28;20583;-65
2022/04/06 10:48:42;;;;;;;5.47;1.70;;;16.40;51.10;15.60;99574.00;;;;5068366;28;20040;-65
2022/04/06 10:51:37;;;;;;;6.00;1.90;;;16.40;51.10;15.60;99573.00;;;;5035626;28;20048;-64
2022/04/06 10:54:27;;;;;;;5.45;1.95;;;16.40;51.20;15.60;99577.00;;;;5059093;28;20028;-64
2022/04/06 10:57:14;;;;;;;5.95;1.80;;;16.40;51.30;15.60;99573.00;;;;5059508;28;20467;-64
2022/04/06 11:00:14;;;;;;;4.75;1.90;;;16.40;51.30;15.60;99569.00;;;;5055820;28;20552;-64
2022/04/06 11:03:21;;;;;;;4.82;2.00;;;16.40;51.40;15.60;99568.00;;;;5040074;28;20048;-65
2022/04/06 11:06:07;;;;;;;3.70;1.75;;;16.10;51.30;15.60;99563.00;;;;5044862;28;20112;-64
2022/04/06 11:12:25;;;;;;;3.55;1.80;;;16.40;51.50;15.60;99561.00;;;;5044475;28;20045;-64
2022/04/06 11:15:11;;;;;;;7.88;1.73;;;16.40;51.50;15.60;99563.00;;;;5054896;28;20036;-64
2022/04/06 11:17:57;;;;;;;3.95;1.67;;;16.50;51.60;15.60;99569.00;;;;5059033;28;20056;-64
2022/04/06 11:20:43;;;;;;;3.47;1.52;;;16.40;51.60;15.60;99566.00;;;;5046829;28;20043;-64
2022/04/06 11:23:29;;;;;;;2.47;1.33;;;16.40;51.60;15.60;99560.00;;;;5061121;28;20498;-64
2022/04/06 11:26:15;;;;;;;2.80;1.40;;;16.40;51.70;15.60;99568.00;;;;5042377;28;20517;-64
2022/04/06 11:29:01;;;;;;;3.90;1.45;;;16.40;51.70;15.60;99557.00;;;;5057249;28;20064;-64
2022/04/06 11:32:04;;;;;;;2.20;1.40;;;16.50;51.80;15.60;99566.00;;;;5062075;28;20044;-64
2022/04/06 11:34:50;;;;;;;4.43;1.58;;;16.40;51.80;15.60;99564.00;;;;5070973;28;20150;-64
2022/04/06 11:37:47;;;;;;;4.03;1.60;;;16.40;51.80;15.60;99565.00;;;;5074341;28;20066;-65
2022/04/06 11:40:37;;;;;;;1.95;1.45;;;16.40;51.80;15.60;99554.00;;;;5084047;28;20046;-64
2022/04/06 11:43:23;;;;;;;2.72;1.08;;;16.40;51.80;15.60;99554.00;;;;5084440;28;20072;-64
2022/04/06 11:46:09;;;;;;;4.03;1.40;;;16.40;51.90;15.60;99546.00;;;;5057288;28;20311;-64
2022/04/06 11:48:55;;;;;;;2.38;1.30;;;16.40;51.90;15.60;99549.00;;;;5080504;28;20558;-64
2022/04/06 11:51:41;;;;;;;3.58;1.50;;;16.40;51.90;15.60;99556.00;;;;5082467;28;20512;-64
2022/04/06 11:54:27;;;;;;;5.82;1.50;;;16.40;52.00;15.60;99547.00;;;;5053486;28;20329;-64
2022/04/06 11:57:13;;;;;;;3.17;1.35;;;16.40;52.00;15.60;99549.00;;;;5071451;28;20375;-64
2022/04/06 11:59:59;;;;;;;2.05;1.25;;;16.40;52.00;15.60;99547.00;;;;5085652;28;20028;-64
2022/04/06 12:02:55;;;;;;;1.20;0.90;;;16.40;52.00;15.60;99537.00;;;;5085907;28;20063;-64
2022/04/06 12:05:48;;;;;;;2.00;1.23;;;16.40;52.00;15.60;99543.00;;;;5070140;28;20048;-64
2022/04/06 12:08:34;;;;;;;3.33;1.20;;;16.40;52.10;15.60;99542.00;;;;5082758;28;20131;-64
2022/04/06 12:11:21;;;;;;;2.25;1.15;;;16.40;52.90;15.60;99539.00;;;;5061489;28;20074;-64
2022/04/06 12:14:13;;;;;;;1.52;0.95;;;16.40;52.10;15.60;99543.00;;;;5074588;28;20146;-64
2022/04/06 12:16:59;;;;;;;3.33;1.30;;;16.40;52.20;15.60;99531.00;;;;5072773;28;20397;-65
2022/04/06 12:19:45;;;;;;;3.22;1.00;;;16.40;52.20;15.60;99535.00;;;;5080407;28;20131;-64
2022/04/06 12:22:31;;;;;;;3.05;1.40;;;16.40;52.20;15.60;99541.00;;;;5081511;28;20043;-64
2022/04/06 12:25:31;;;;;;;2.58;1.23;;;16.60;52.30;15.60;99532.00;;;;5083471;28;20032;-64
2022/04/06 12:28:25;;;;;;;3.03;1.40;;;16.40;52.30;15.60;99537.00;;;;5086240;27;20086;-64
2022/04/06 12:31:11;;;;;;;2.15;1.00;;;16.40;52.30;15.60;99526.00;;;;5068414;28;20482;-64
2022/04/06 12:33:57;;;;;;;3.10;1.38;;;16.40;52.20;15.60;99524.00;;;;5084438;28;20499;-64